createdAt,value
2022-12-19T00:00:36.664Z,0.80
2022-12-19T00:03:04.791Z,0.70
2022-12-19T00:05:32.876Z,0.80
2022-12-19T00:08:06.201Z,1.00
2022-12-19T00:10:56.966Z,1.10
2022-12-19T00:13:25.793Z,0.90
2022-12-19T00:15:53.806Z,0.70
2022-12-19T00:18:22.213Z,0.70
2022-12-19T00:20:58.868Z,0.70
2022-12-19T00:23:26.964Z,0.70
2022-12-19T00:25:56.644Z,0.70
2022-12-19T00:28:24.989Z,0.70
2022-12-19T00:30:55.185Z,0.70
2022-12-19T00:33:24.429Z,0.60
2022-12-19T00:35:52.489Z,0.60
2022-12-19T00:38:20.435Z,0.70
2022-12-19T00:40:48.387Z,0.80
2022-12-19T00:43:17.768Z,0.80
2022-12-19T00:45:45.796Z,0.80
2022-12-19T00:48:16.620Z,0.70
2022-12-19T00:50:46.536Z,0.60
2022-12-19T00:53:14.506Z,0.60
2022-12-19T00:55:42.489Z,0.60
2022-12-19T00:58:10.426Z,0.70
2022-12-19T01:00:39.906Z,0.80
2022-12-19T01:03:10.342Z,0.80
2022-12-19T01:05:41.199Z,0.80
2022-12-19T01:08:10.581Z,0.70
2022-12-19T01:10:38.668Z,0.80
2022-12-19T01:13:05.638Z,0.80
2022-12-19T01:15:33.609Z,0.70
2022-12-19T01:18:03.555Z,0.70
2022-12-19T01:20:31.642Z,0.80
2022-12-19T01:23:00.541Z,0.70
2022-12-19T01:25:29.128Z,0.60
2022-12-19T01:27:57.664Z,0.60
2022-12-19T01:30:26.073Z,0.60
2022-12-19T01:32:54.096Z,0.70
2022-12-19T01:35:23.679Z,0.70
2022-12-19T01:37:51.854Z,0.80
2022-12-19T01:40:24.255Z,0.70
2022-12-19T01:42:52.454Z,0.80
2022-12-19T01:45:33.948Z,0.90
2022-12-19T01:48:13.868Z,0.80
2022-12-19T01:51:01.137Z,0.80
2022-12-19T01:53:34.626Z,0.90
2022-12-19T01:56:08.329Z,0.70
2022-12-19T01:58:37.134Z,0.80
2022-12-19T02:01:05.374Z,1.00
2022-12-19T02:03:36.154Z,1.10
2022-12-19T02:06:06.598Z,1.20
2022-12-19T02:08:34.896Z,1.30
2022-12-19T02:11:03.022Z,1.40
2022-12-19T02:13:31.379Z,1.40
2022-12-19T02:16:05.827Z,1.20
2022-12-19T02:18:43.800Z,1.10
2022-12-19T02:21:35.211Z,1.00
2022-12-19T02:24:51.341Z,0.90
2022-12-19T02:27:54.829Z,1.00
2022-12-19T02:30:43.321Z,0.90
2022-12-19T02:33:18.386Z,0.80
2022-12-19T02:35:51.704Z,0.80
2022-12-19T02:38:27.234Z,0.80
2022-12-19T02:41:01.811Z,0.80
2022-12-19T02:43:33.394Z,0.80
2022-12-19T02:46:04.976Z,0.80
2022-12-19T02:48:33.855Z,0.90
2022-12-19T02:51:01.945Z,1.10
2022-12-19T02:53:29.931Z,1.20
2022-12-19T02:56:17.257Z,1.30
2022-12-19T02:58:53.926Z,1.20
2022-12-19T03:01:38.319Z,1.00
2022-12-19T03:04:15.610Z,0.80
2022-12-19T03:06:49.441Z,0.90
2022-12-19T03:09:20.937Z,1.00
2022-12-19T03:11:52.876Z,0.90
2022-12-19T03:14:23.238Z,1.00
2022-12-19T03:16:53.419Z,1.00
2022-12-19T03:19:21.798Z,1.10
2022-12-19T03:21:53.390Z,1.10
2022-12-19T03:24:21.485Z,1.20
2022-12-19T03:26:53.220Z,1.20
2022-12-19T03:29:27.107Z,1.20
2022-12-19T03:31:57.764Z,1.40
2022-12-19T03:34:30.506Z,1.50
2022-12-19T03:37:02.578Z,1.50
2022-12-19T03:39:32.795Z,1.30
2022-12-19T03:42:20.745Z,1.20
2022-12-19T03:44:51.179Z,1.20
2022-12-19T03:47:25.368Z,1.40
2022-12-19T03:49:54.110Z,1.40
2022-12-19T03:52:29.030Z,1.50
2022-12-19T03:55:04.318Z,1.50
2022-12-19T03:57:39.054Z,1.50
2022-12-19T04:00:10.052Z,1.50
2022-12-19T04:02:42.487Z,1.30
2022-12-19T04:05:13.818Z,1.10
2022-12-19T04:07:43.163Z,1.00
2022-12-19T04:10:16.628Z,1.20
2022-12-19T04:12:49.477Z,1.30
2022-12-19T04:15:18.393Z,1.30
2022-12-19T04:17:52.526Z,1.40
2022-12-19T04:20:22.725Z,1.50
2022-12-19T04:22:54.134Z,1.60
2022-12-19T04:25:30.256Z,1.50
2022-12-19T04:28:04.340Z,1.30
2022-12-19T04:30:36.805Z,1.20
2022-12-19T04:33:06.523Z,1.10
2022-12-19T04:35:36.388Z,1.20
2022-12-19T04:38:04.674Z,1.30
2022-12-19T04:40:40.674Z,1.40
2022-12-19T04:43:09.785Z,1.50
2022-12-19T04:45:38.142Z,1.40
2022-12-19T04:48:08.162Z,1.40
2022-12-19T04:50:37.344Z,1.40
2022-12-19T04:53:05.702Z,1.50
2022-12-19T04:55:33.734Z,1.50
2022-12-19T04:58:06.213Z,1.50
2022-12-19T05:00:34.679Z,1.60
2022-12-19T05:03:02.877Z,1.60
2022-12-19T05:05:32.318Z,1.50
2022-12-19T05:08:00.312Z,1.30
2022-12-19T05:10:28.368Z,1.30
2022-12-19T05:12:56.377Z,1.20
2022-12-19T05:15:24.625Z,1.30
2022-12-19T05:17:52.589Z,1.30
2022-12-19T05:20:20.643Z,1.10
2022-12-19T05:22:50.181Z,1.20
2022-12-19T05:25:18.379Z,1.10
2022-12-19T05:27:48.369Z,1.00
2022-12-19T05:30:16.385Z,0.90
2022-12-19T05:32:44.378Z,0.90
2022-12-19T05:35:12.367Z,1.00
2022-12-19T05:37:40.342Z,1.00
2022-12-19T05:40:11.178Z,1.00
2022-12-19T05:42:39.134Z,1.00
2022-12-19T05:45:08.733Z,1.10
2022-12-19T05:47:38.048Z,1.10
2022-12-19T05:50:07.171Z,1.10
2022-12-19T05:52:35.143Z,1.10
2022-12-19T05:55:03.127Z,1.20
2022-12-19T05:57:32.524Z,1.40
2022-12-19T06:00:00.624Z,1.40
2022-12-19T06:02:32.931Z,1.10
2022-12-19T06:05:01.085Z,1.20
2022-12-19T06:07:29.913Z,1.20
2022-12-19T06:09:57.923Z,1.30
2022-12-19T06:12:25.925Z,1.30
2022-12-19T06:14:55.274Z,1.10
2022-12-19T06:17:23.276Z,0.90
2022-12-19T06:19:51.258Z,0.80
2022-12-19T06:22:19.308Z,0.60
2022-12-19T06:24:47.302Z,0.70
2022-12-19T06:27:15.269Z,0.80
2022-12-19T06:29:43.216Z,1.00
2022-12-19T06:32:12.572Z,1.00
2022-12-19T06:35:03.326Z,0.80
2022-12-19T06:37:28.505Z,0.70
2022-12-19T06:39:56.488Z,0.60
2022-12-19T06:42:23.487Z,0.60
2022-12-19T06:44:51.990Z,0.70
2022-12-19T06:47:22.308Z,0.80
2022-12-19T06:49:50.641Z,0.90
2022-12-19T06:52:19.136Z,1.00
2022-12-19T06:54:47.101Z,1.20
2022-12-19T06:57:15.247Z,1.00
2022-12-19T06:59:43.366Z,0.90
2022-12-19T07:02:25.853Z,0.80
2022-12-19T07:05:00.350Z,0.80
2022-12-19T07:07:29.667Z,0.80
2022-12-19T07:09:57.729Z,0.70
2022-12-19T07:12:25.749Z,0.60
2022-12-19T07:14:54.084Z,0.40
2022-12-19T07:17:24.485Z,0.40
2022-12-19T07:19:54.091Z,0.40
2022-12-19T07:22:22.159Z,0.30
2022-12-19T07:24:50.237Z,0.30
2022-12-19T07:27:20.303Z,0.30
2022-12-19T07:29:48.326Z,0.30
2022-12-19T07:32:16.311Z,0.30
2022-12-19T07:34:45.661Z,0.30
2022-12-19T07:37:13.684Z,0.30
2022-12-19T07:39:41.704Z,0.40
2022-12-19T07:42:09.746Z,0.30
2022-12-19T07:44:37.889Z,0.30
2022-12-19T07:47:08.541Z,0.40
2022-12-19T07:49:36.685Z,0.60
2022-12-19T07:52:06.055Z,0.70
2022-12-19T07:54:35.117Z,0.80
2022-12-19T07:57:03.175Z,1.00
2022-12-19T07:59:38.663Z,1.00
2022-12-19T08:02:07.936Z,1.00
2022-12-19T08:04:36.515Z,1.10
2022-12-19T08:07:06.162Z,1.20
2022-12-19T08:09:34.225Z,1.20
2022-12-19T08:12:02.269Z,1.30
2022-12-19T08:14:30.249Z,1.30
2022-12-19T08:19:46.388Z,1.40
2022-12-19T08:22:15.725Z,1.40
2022-12-19T08:24:43.962Z,1.40
2022-12-19T08:27:11.936Z,1.30
2022-12-19T08:29:41.792Z,1.40
2022-12-19T08:32:09.832Z,1.50
2022-12-19T08:34:37.806Z,1.50
2022-12-19T08:37:06.044Z,1.60
2022-12-19T08:39:35.423Z,1.70
2022-12-19T08:42:03.741Z,1.70
2022-12-19T08:44:31.693Z,1.70
2022-12-19T08:46:59.662Z,1.70
2022-12-19T08:49:27.727Z,1.40
2022-12-19T08:51:55.776Z,1.20
2022-12-19T08:54:23.768Z,1.00
2022-12-19T08:56:53.117Z,1.00
2022-12-19T08:59:24.981Z,1.10
2022-12-19T09:01:59.753Z,1.10
2022-12-19T09:05:52.881Z,1.10
2022-12-19T09:07:16.415Z,1.00
2022-12-19T09:09:44.624Z,1.00
2022-12-19T09:12:16.183Z,1.10
2022-12-19T09:14:45.194Z,1.10
2022-12-19T09:17:13.302Z,1.10
2022-12-19T09:19:45.111Z,1.10
2022-12-19T09:22:16.199Z,1.20
2022-12-19T09:24:44.223Z,1.20
2022-12-19T09:27:12.301Z,1.30
2022-12-19T09:29:44.144Z,1.30
2022-12-19T09:32:12.358Z,1.40
2022-12-19T09:34:40.477Z,1.50
2022-12-19T09:37:15.829Z,1.70
2022-12-19T09:39:46.561Z,1.80
2022-12-19T09:42:40.597Z,1.80
2022-12-19T09:45:31.665Z,1.80
2022-12-19T09:48:02.657Z,1.90
2022-12-19T09:50:43.525Z,1.90
2022-12-19T09:53:18.969Z,1.90
2022-12-19T09:55:48.897Z,2.00
2022-12-19T09:58:27.918Z,1.90
2022-12-19T10:01:00.141Z,1.90
2022-12-19T10:03:32.280Z,1.80
2022-12-19T10:07:12.469Z,1.90
2022-12-19T10:10:18.203Z,1.90
2022-12-19T10:12:40.177Z,1.80
2022-12-19T10:15:10.646Z,1.80
2022-12-19T10:17:58.527Z,1.80
2022-12-19T10:20:30.763Z,1.70
2022-12-19T10:23:11.516Z,1.80
2022-12-19T10:25:51.565Z,1.90
2022-12-19T10:28:32.885Z,2.00
2022-12-19T10:31:17.199Z,2.00
2022-12-19T10:33:58.961Z,2.10
2022-12-19T10:36:55.984Z,2.20
2022-12-19T10:39:27.422Z,2.30
2022-12-19T10:42:00.277Z,2.40
2022-12-19T10:44:31.679Z,2.50
2022-12-19T10:46:59.763Z,2.40
2022-12-19T10:49:30.893Z,2.40
2022-12-19T10:52:00.987Z,2.30
2022-12-19T10:54:41.033Z,2.30
2022-12-19T10:57:21.162Z,2.30
2022-12-19T11:00:00.378Z,2.30
2022-12-19T11:02:36.333Z,2.40
2022-12-19T11:05:20.645Z,2.50
2022-12-19T11:08:01.593Z,2.60
2022-12-19T11:12:09.231Z,2.60
2022-12-19T11:18:42.332Z,2.80
2022-12-19T11:23:54.881Z,2.90
2022-12-19T11:29:30.510Z,3.00
2022-12-19T11:29:38.446Z,3.00
2022-12-19T11:30:09.514Z,3.10
2022-12-19T11:30:45.889Z,3.10
2022-12-19T11:34:05.989Z,3.20
2022-12-19T11:36:40.089Z,3.20
2022-12-19T11:39:17.737Z,3.20
2022-12-19T11:41:52.348Z,3.20
2022-12-19T11:44:29.862Z,3.30
2022-12-19T11:47:05.996Z,3.30
2022-12-19T11:49:39.716Z,3.40
2022-12-19T11:53:02.408Z,3.30
2022-12-19T11:55:21.618Z,3.30
2022-12-19T11:57:49.829Z,3.30
2022-12-19T12:00:22.028Z,3.30
2022-12-19T12:03:26.320Z,3.30
2022-12-19T12:05:56.537Z,3.30
2022-12-19T12:12:23.128Z,3.30
2022-12-19T12:19:56.437Z,3.30
2022-12-19T12:26:13.248Z,3.30
2022-12-19T12:31:15.728Z,3.50
2022-12-19T12:31:27.720Z,3.40
2022-12-19T12:31:44.604Z,3.50
2022-12-19T12:31:51.537Z,3.60
2022-12-19T12:31:56.212Z,3.60
2022-12-19T12:35:54.205Z,3.60
2022-12-19T12:37:51.368Z,3.70
2022-12-19T12:38:48.567Z,3.70
2022-12-19T12:41:45.456Z,3.80
2022-12-19T12:44:14.243Z,3.90
2022-12-19T12:46:48.974Z,3.90
2022-12-19T12:49:40.188Z,3.90
2022-12-19T12:52:10.778Z,4.00
2022-12-19T12:54:43.015Z,4.00
2022-12-19T12:57:21.691Z,4.00
2022-12-19T13:00:19.355Z,4.00
2022-12-19T13:02:52.411Z,4.00
2022-12-19T13:05:33.431Z,4.10
2022-12-19T13:08:01.711Z,4.10
2022-12-19T13:10:32.242Z,4.10
2022-12-19T13:13:02.531Z,4.10
2022-12-19T13:15:40.458Z,4.10
2022-12-19T13:18:34.484Z,4.00
2022-12-19T13:21:07.773Z,4.10
2022-12-19T13:24:16.296Z,4.10
2022-12-19T13:26:47.346Z,4.20
2022-12-19T13:29:53.976Z,4.20
2022-12-19T13:32:23.696Z,4.20
2022-12-19T13:35:10.621Z,4.20
2022-12-19T13:39:57.350Z,4.30
2022-12-19T13:40:55.113Z,4.30
2022-12-19T13:43:43.954Z,4.30
2022-12-19T13:46:26.274Z,4.30
2022-12-19T13:48:57.853Z,4.30
2022-12-19T13:51:27.277Z,4.30
2022-12-19T13:53:59.784Z,4.20
2022-12-19T13:56:32.055Z,4.20
2022-12-19T13:59:02.512Z,4.20
2022-12-19T14:01:33.485Z,4.20
2022-12-19T14:04:08.411Z,4.20
2022-12-19T14:06:43.835Z,4.20
2022-12-19T14:11:25.310Z,4.20
2022-12-19T14:13:40.375Z,4.10
2022-12-19T14:15:32.765Z,4.20
2022-12-19T14:18:43.157Z,4.20
2022-12-19T14:22:07.402Z,4.20
2022-12-19T14:23:43.754Z,4.20
2022-12-19T14:28:19.825Z,4.20
2022-12-19T14:29:07.947Z,4.20
2022-12-19T14:31:39.146Z,4.20
2022-12-19T14:35:05.165Z,4.20
2022-12-19T14:38:21.236Z,4.20
2022-12-19T14:40:26.237Z,4.20
2022-12-19T14:43:58.538Z,4.20
2022-12-19T14:54:05.912Z,4.10
2022-12-19T14:54:22.569Z,4.10
2022-12-19T14:54:34.887Z,4.10
2022-12-19T14:56:11.541Z,4.00
2022-12-19T14:58:53.873Z,4.00
2022-12-19T15:01:24.215Z,4.00
2022-12-19T15:04:50.295Z,4.00
2022-12-19T15:07:09.792Z,3.90
2022-12-19T15:11:09.161Z,4.00
2022-12-19T15:14:53.991Z,3.90
2022-12-19T15:15:46.066Z,3.90
2022-12-19T15:18:29.069Z,3.90
2022-12-19T15:20:59.221Z,3.90
2022-12-19T15:23:27.957Z,3.80
2022-12-19T15:26:06.178Z,3.90
2022-12-19T15:28:40.660Z,3.90
2022-12-19T15:31:26.779Z,3.80
2022-12-19T15:36:43.248Z,3.70
2022-12-19T15:39:11.287Z,3.70
2022-12-19T15:41:39.325Z,3.60
2022-12-19T15:44:14.865Z,3.60
2022-12-19T15:46:48.431Z,3.60
2022-12-19T15:49:18.366Z,3.60
2022-12-19T15:51:46.750Z,3.60
2022-12-19T15:54:47.321Z,3.60
2022-12-19T15:57:02.945Z,3.50
2022-12-19T15:59:38.565Z,3.50
2022-12-19T16:02:17.101Z,3.50
2022-12-19T16:04:46.388Z,3.50
2022-12-19T16:07:17.908Z,3.40
2022-12-19T16:09:46.306Z,3.40
2022-12-19T16:12:16.774Z,3.40
2022-12-19T16:14:47.595Z,3.40
2022-12-19T16:17:20.509Z,3.40
2022-12-19T16:19:48.824Z,3.30
2022-12-19T16:22:19.662Z,3.40
2022-12-19T16:24:47.695Z,3.40
2022-12-19T16:27:22.323Z,3.40
2022-12-19T16:29:52.156Z,3.40
2022-12-19T16:32:23.065Z,3.40
2022-12-19T16:34:51.451Z,3.40
2022-12-19T16:37:19.504Z,3.50
2022-12-19T16:39:47.603Z,3.40
2022-12-19T16:42:17.001Z,3.40
2022-12-19T16:44:47.649Z,3.40
2022-12-19T16:47:19.539Z,3.40
2022-12-19T16:49:47.577Z,3.30
2022-12-19T16:52:15.576Z,3.30
2022-12-19T16:54:43.578Z,3.30
2022-12-19T16:57:20.826Z,3.30
2022-12-19T16:59:49.904Z,3.20
2022-12-19T17:02:40.587Z,3.20
2022-12-19T17:05:15.409Z,3.20
2022-12-19T17:07:43.501Z,3.20
2022-12-19T17:10:12.094Z,3.20
2022-12-19T17:12:41.212Z,3.10
2022-12-19T17:15:22.834Z,3.10
2022-12-19T17:17:55.432Z,3.00
2022-12-19T17:20:26.455Z,3.10
2022-12-19T17:22:54.886Z,3.10
2022-12-19T17:25:25.044Z,3.10
2022-12-19T17:27:53.982Z,3.10
2022-12-19T17:30:22.680Z,3.10
2022-12-19T17:32:54.450Z,3.10
2022-12-19T17:35:28.013Z,3.00
2022-12-19T17:37:58.064Z,3.00
2022-12-19T17:40:27.591Z,3.00
2022-12-19T17:42:55.908Z,3.00
2022-12-19T17:45:24.809Z,3.10
2022-12-19T17:48:02.051Z,3.10
2022-12-19T17:50:33.002Z,3.10
2022-12-19T17:53:01.205Z,3.00
2022-12-19T17:55:31.162Z,3.00
2022-12-19T17:58:00.011Z,3.00
2022-12-19T18:00:30.893Z,3.00
2022-12-19T18:03:04.988Z,2.90
2022-12-19T18:05:38.853Z,2.90
2022-12-19T18:08:17.712Z,2.90
2022-12-19T18:10:45.784Z,2.90
2022-12-19T18:13:13.796Z,2.90
2022-12-19T18:15:43.008Z,2.90
2022-12-19T18:18:15.775Z,2.90
2022-12-19T18:20:44.940Z,2.90
2022-12-19T18:23:18.583Z,2.80
2022-12-19T18:25:47.088Z,2.80
2022-12-19T18:28:16.051Z,2.80
2022-12-19T18:30:44.674Z,2.80
2022-12-19T18:33:17.835Z,2.80
2022-12-19T18:35:49.098Z,2.80
2022-12-19T18:38:19.728Z,2.80
2022-12-19T18:40:48.186Z,2.70
2022-12-19T18:43:17.797Z,2.80
2022-12-19T18:45:48.140Z,2.80
2022-12-19T18:48:25.205Z,2.80
2022-12-19T18:50:53.360Z,2.80
2022-12-19T18:53:23.215Z,2.80
2022-12-19T18:55:53.233Z,2.50
2022-12-19T18:58:21.484Z,2.40
2022-12-19T19:00:54.176Z,2.50
2022-12-19T19:03:30.203Z,2.60
2022-12-19T19:05:59.320Z,2.70
2022-12-19T19:08:30.493Z,2.70
2022-12-19T19:10:58.789Z,2.70
2022-12-19T19:13:27.923Z,2.70
2022-12-19T19:15:59.429Z,2.70
2022-12-19T19:18:33.092Z,2.60
2022-12-19T19:21:02.342Z,2.60
2022-12-19T19:23:34.475Z,2.60
2022-12-19T19:26:02.568Z,2.60
2022-12-19T19:28:30.577Z,2.60
2022-12-19T19:31:01.222Z,2.60
2022-12-19T19:33:35.982Z,2.60
2022-12-19T19:36:12.180Z,2.50
2022-12-19T19:38:43.211Z,2.50
2022-12-19T19:41:12.675Z,2.50
2022-12-19T19:43:41.289Z,2.50
2022-12-19T19:46:09.644Z,2.50
2022-12-19T19:48:41.338Z,2.50
2022-12-19T19:51:09.991Z,2.50
2022-12-19T19:53:38.111Z,2.50
2022-12-19T19:56:06.606Z,2.50
2022-12-19T19:58:34.583Z,2.50
2022-12-19T20:01:08.593Z,2.50
2022-12-19T20:03:38.122Z,2.40
2022-12-19T20:06:06.634Z,2.40
2022-12-19T20:08:39.671Z,2.40
2022-12-19T20:11:09.256Z,2.40
2022-12-19T20:13:37.921Z,2.40
2022-12-19T20:16:08.775Z,2.40
2022-12-19T20:18:42.311Z,2.30
2022-12-19T20:21:13.440Z,2.30
2022-12-19T20:23:42.610Z,2.30
2022-12-19T20:26:11.762Z,2.30
2022-12-19T20:28:47.937Z,2.40
2022-12-19T20:31:17.385Z,2.40
2022-12-19T20:33:48.327Z,2.40
2022-12-19T20:36:17.726Z,2.40
2022-12-19T20:38:46.206Z,2.40
2022-12-19T20:41:18.983Z,2.40
2022-12-19T20:43:48.067Z,2.30
2022-12-19T20:46:18.085Z,2.30
2022-12-19T20:48:48.886Z,2.30
2022-12-19T20:51:19.307Z,2.40
2022-12-19T20:53:47.762Z,2.40
2022-12-19T20:56:17.716Z,2.30
2022-12-19T20:58:46.892Z,2.30
2022-12-19T21:01:16.486Z,2.20
2022-12-19T21:03:47.417Z,2.20
2022-12-19T21:06:18.705Z,2.20
2022-12-19T21:08:47.139Z,2.20
2022-12-19T21:11:16.623Z,2.20
2022-12-19T21:13:45.149Z,2.20
2022-12-19T21:16:15.453Z,2.20
2022-12-19T21:18:45.025Z,2.20
2022-12-19T21:21:16.395Z,2.20
2022-12-19T21:23:45.503Z,2.20
2022-12-19T21:26:13.842Z,2.10
2022-12-19T21:28:41.962Z,2.10
2022-12-19T21:31:16.260Z,2.10
2022-12-19T21:33:44.764Z,2.10
2022-12-19T21:36:19.007Z,2.10
2022-12-19T21:38:47.418Z,2.00
2022-12-19T21:41:18.922Z,1.80
2022-12-19T21:43:48.918Z,2.00
2022-12-19T21:46:18.215Z,2.10
2022-12-19T21:48:48.196Z,2.10
2022-12-19T21:51:19.656Z,2.10
2022-12-19T21:53:48.297Z,2.10
2022-12-19T21:56:24.389Z,2.10
2022-12-19T21:58:53.692Z,2.10
2022-12-19T22:01:22.308Z,2.10
2022-12-19T22:03:50.617Z,2.00
2022-12-19T22:06:27.722Z,2.00
2022-12-19T22:08:56.864Z,2.00
2022-12-19T22:11:28.016Z,2.00
2022-12-19T22:13:56.660Z,2.00
2022-12-19T22:16:24.765Z,2.00
2022-12-19T22:18:54.728Z,2.00
2022-12-19T22:21:25.448Z,2.00
2022-12-19T22:23:53.674Z,2.00
2022-12-19T22:26:24.179Z,1.90
2022-12-19T22:28:55.539Z,2.00
2022-12-19T22:31:25.287Z,1.90
2022-12-19T22:33:55.083Z,1.90
2022-12-19T22:36:28.400Z,2.00
2022-12-19T22:38:58.082Z,2.00
2022-12-19T22:41:26.841Z,1.90
2022-12-19T22:43:55.483Z,1.90
2022-12-19T22:46:26.573Z,1.90
2022-12-19T22:48:56.967Z,1.90
2022-12-19T22:51:27.584Z,1.90
2022-12-19T22:53:56.033Z,1.80
2022-12-19T22:56:26.435Z,1.80
2022-12-19T22:58:56.904Z,1.80
2022-12-19T23:01:28.080Z,1.80
2022-12-19T23:04:01.622Z,1.80
2022-12-19T23:06:35.349Z,1.80
2022-12-19T23:09:05.557Z,1.80
2022-12-19T23:11:35.873Z,1.80
2022-12-19T23:14:08.123Z,1.80
2022-12-19T23:16:39.278Z,1.70
2022-12-19T23:19:10.587Z,1.70
2022-12-19T23:21:39.940Z,1.70
2022-12-19T23:24:10.119Z,1.70
2022-12-19T23:26:39.256Z,1.70
2022-12-19T23:29:12.087Z,1.80
2022-12-19T23:31:45.089Z,1.70
2022-12-19T23:34:13.415Z,1.70
2022-12-19T23:39:35.175Z,1.70
2022-12-19T23:42:05.329Z,1.70
2022-12-19T23:44:33.476Z,1.80
2022-12-19T23:47:03.914Z,1.80
2022-12-19T23:49:33.068Z,1.80
2022-12-19T23:52:02.420Z,1.80
2022-12-19T23:54:30.663Z,1.80
2022-12-19T23:56:58.743Z,1.80
2022-12-19T23:59:26.710Z,1.80
